Formoso do Araguaia, Brazil
Current Conditions -  °F | °C
As of 7:00 AM on Thursday 27 Nov 2014 (Local Time) from SBPJ Reporting Station
Scattered Clouds Scattered Clouds  
Wind Chill: 75°   Ceiling: Unl
Heat Index: 75°   Visibility: 6mi
Dew Point: 72°   Wind: 2mph
Humidity: 89%   Direction: 300°WNW
Pressure: 29.88"   Gusts: NA
Location:  11.79°S, 49.54°W
Report Text: SBPJ 271000Z 30002KT 9999 FEW015 SCT025 FEW027TCU 24/22 Q1012 RETS
Loading
Personal Weather Stations






























Interactive Weather Map New forecast layout! Learn more

10-Day Weather Forecast

Advertisements
Track Severe Weather on mobile